sensor_id;sensor_type;location;lat;lon;timestamp;temperature;humidity
28835;DHT22;15969;51.536;11.884;2023-03-01T00:01:33;-2.00;99.90
28835;DHT22;15969;51.536;11.884;2023-03-01T00:03:59;-2.00;99.90
28835;DHT22;15969;51.536;11.884;2023-03-01T00:06:26;-2.00;99.90
28835;DHT22;15969;51.536;11.884;2023-03-01T00:08:52;-2.10;99.90
28835;DHT22;15969;51.536;11.884;2023-03-01T00:11:23;-2.10;99.90
28835;DHT22;15969;51.536;11.884;2023-03-01T00:13:53;-2.10;99.90
28835;DHT22;15969;51.536;11.884;2023-03-01T00:16:29;-2.10;99.90
28835;DHT22;15969;51.536;11.884;2023-03-01T00:18:58;-2.10;99.90
28835;DHT22;15969;51.536;11.884;2023-03-01T00:21:25;-2.20;99.90
28835;DHT22;15969;51.536;11.884;2023-03-01T00:23:52;-2.20;99.90
28835;DHT22;15969;51.536;11.884;2023-03-01T00:26:20;-2.20;99.90
28835;DHT22;15969;51.536;11.884;2023-03-01T00:28:47;-2.20;99.90
28835;DHT22;15969;51.536;11.884;2023-03-01T00:31:15;-2.30;99.90
28835;DHT22;15969;51.536;11.884;2023-03-01T00:33:43;-2.20;99.90
28835;DHT22;15969;51.536;11.884;2023-03-01T00:36:09;-2.30;99.90
28835;DHT22;15969;51.536;11.884;2023-03-01T00:38:37;-2.30;99.90
28835;DHT22;15969;51.536;11.884;2023-03-01T00:41:05;-2.30;99.90
28835;DHT22;15969;51.536;11.884;2023-03-01T00:43:38;-2.30;99.90
28835;DHT22;15969;51.536;11.884;2023-03-01T00:46:05;-2.40;99.90
28835;DHT22;15969;51.536;11.884;2023-03-01T00:48:33;-2.40;99.90
28835;DHT22;15969;51.536;11.884;2023-03-01T00:51:13;-2.40;99.90
28835;DHT22;15969;51.536;11.884;2023-03-01T00:53:40;-2.40;99.90
28835;DHT22;15969;51.536;11.884;2023-03-01T00:56:08;-2.40;99.90
28835;DHT22;15969;51.536;11.884;2023-03-01T00:58:35;-2.40;99.90
28835;DHT22;15969;51.536;11.884;2023-03-01T01:01:07;-2.30;99.90
28835;DHT22;15969;51.536;11.884;2023-03-01T01:03:52;-2.30;99.90
28835;DHT22;15969;51.536;11.884;2023-03-01T01:06:36;-2.40;99.90
28835;DHT22;15969;51.536;11.884;2023-03-01T01:09:06;-2.50;99.90
28835;DHT22;15969;51.536;11.884;2023-03-01T01:11:32;-2.50;99.90
28835;DHT22;15969;51.536;11.884;2023-03-01T01:13:58;-2.50;99.90
28835;DHT22;15969;51.536;11.884;2023-03-01T01:16:27;-2.50;99.90
28835;DHT22;15969;51.536;11.884;2023-03-01T01:18:53;-2.40;99.90
28835;DHT22;15969;51.536;11.884;2023-03-01T01:21:21;-2.40;99.90
28835;DHT22;15969;51.536;11.884;2023-03-01T01:23:48;-2.40;99.90
28835;DHT22;15969;51.536;11.884;2023-03-01T01:26:26;-2.40;99.90
28835;DHT22;15969;51.536;11.884;2023-03-01T01:28:53;-2.40;99.90
28835;DHT22;15969;51.536;11.884;2023-03-01T01:31:20;-2.40;99.90
28835;DHT22;15969;51.536;11.884;2023-03-01T01:33:46;-2.40;99.90
28835;DHT22;15969;51.536;11.884;2023-03-01T01:36:12;-2.30;99.90
28835;DHT22;15969;51.536;11.884;2023-03-01T01:38:38;-2.30;99.90
28835;DHT22;15969;51.536;11.884;2023-03-01T01:41:05;-2.30;99.90
28835;DHT22;15969;51.536;11.884;2023-03-01T01:43:34;-2.30;99.90
28835;DHT22;15969;51.536;11.884;2023-03-01T01:46:13;-2.30;99.90
28835;DHT22;15969;51.536;11.884;2023-03-01T01:49:36;-2.30;99.90
28835;DHT22;15969;51.536;11.884;2023-03-01T01:52:15;-2.30;99.90
28835;DHT22;15969;51.536;11.884;2023-03-01T01:55:00;-2.20;99.90
28835;DHT22;15969;51.536;11.884;2023-03-01T01:57:45;-2.20;99.90
28835;DHT22;15969;51.536;11.884;2023-03-01T02:00:14;-2.20;99.90
28835;DHT22;15969;51.536;11.884;2023-03-01T02:02:47;-2.30;99.90
28835;DHT22;15969;51.536;11.884;2023-03-01T02:05:22;-2.20;99.90
28835;DHT22;15969;51.536;11.884;2023-03-01T02:07:51;-2.30;99.90
28835;DHT22;15969;51.536;11.884;2023-03-01T02:10:17;-2.30;99.90
28835;DHT22;15969;51.536;11.884;2023-03-01T02:12:44;-2.40;99.90
28835;DHT22;15969;51.536;11.884;2023-03-01T02:15:10;-2.40;99.90
28835;DHT22;15969;51.536;11.884;2023-03-01T02:17:36;-2.50;99.90
28835;DHT22;15969;51.536;11.884;2023-03-01T02:20:23;-2.50;99.90
28835;DHT22;15969;51.536;11.884;2023-03-01T02:22:55;-2.50;99.90
28835;DHT22;15969;51.536;11.884;2023-03-01T02:28:40;-2.60;99.90
28835;DHT22;15969;51.536;11.884;2023-03-01T02:31:08;-2.60;99.90
28835;DHT22;15969;51.536;11.884;2023-03-01T02:33:55;-2.60;99.90
28835;DHT22;15969;51.536;11.884;2023-03-01T02:36:29;-2.70;99.90
28835;DHT22;15969;51.536;11.884;2023-03-01T02:38:58;-2.60;99.90
28835;DHT22;15969;51.536;11.884;2023-03-01T02:41:26;-2.60;99.90
28835;DHT22;15969;51.536;11.884;2023-03-01T02:43:54;-2.60;99.90
28835;DHT22;15969;51.536;11.884;2023-03-01T02:46:23;-2.70;99.90
28835;DHT22;15969;51.536;11.884;2023-03-01T02:48:54;-2.80;99.90
28835;DHT22;15969;51.536;11.884;2023-03-01T02:51:34;-2.80;99.90
28835;DHT22;15969;51.536;11.884;2023-03-01T02:56:55;-2.80;99.90
28835;DHT22;15969;51.536;11.884;2023-03-01T02:59:26;-2.90;99.90
28835;DHT22;15969;51.536;11.884;2023-03-01T03:01:54;-2.90;99.90
28835;DHT22;15969;51.536;11.884;2023-03-01T03:04:20;-2.90;99.90
28835;DHT22;15969;51.536;11.884;2023-03-01T03:06:47;-2.90;99.90
28835;DHT22;15969;51.536;11.884;2023-03-01T03:09:15;-2.90;99.90
28835;DHT22;15969;51.536;11.884;2023-03-01T03:11:41;-3.10;99.90
28835;DHT22;15969;51.536;11.884;2023-03-01T03:14:09;-3.10;99.90
28835;DHT22;15969;51.536;11.884;2023-03-01T03:16:58;-3.10;99.90
28835;DHT22;15969;51.536;11.884;2023-03-01T03:19:23;-3.00;99.90
28835;DHT22;15969;51.536;11.884;2023-03-01T03:21:49;-3.10;99.90
28835;DHT22;15969;51.536;11.884;2023-03-01T03:24:15;-3.20;99.90
28835;DHT22;15969;51.536;11.884;2023-03-01T03:26:40;-3.20;99.90
28835;DHT22;15969;51.536;11.884;2023-03-01T03:29:06;-3.20;99.90
28835;DHT22;15969;51.536;11.884;2023-03-01T03:31:32;-3.20;99.90
28835;DHT22;15969;51.536;11.884;2023-03-01T03:33:57;-3.10;99.90
28835;DHT22;15969;51.536;11.884;2023-03-01T03:36:24;-3.20;99.90
28835;DHT22;15969;51.536;11.884;2023-03-01T03:38:50;-3.20;99.90
28835;DHT22;15969;51.536;11.884;2023-03-01T03:41:16;-3.10;99.90
28835;DHT22;15969;51.536;11.884;2023-03-01T03:43:42;-3.20;99.90
28835;DHT22;15969;51.536;11.884;2023-03-01T03:46:09;-3.20;99.90
28835;DHT22;15969;51.536;11.884;2023-03-01T03:48:39;-3.30;99.90
28835;DHT22;15969;51.536;11.884;2023-03-01T03:51:07;-3.30;99.90
28835;DHT22;15969;51.536;11.884;2023-03-01T03:53:35;-3.30;99.90
28835;DHT22;15969;51.536;11.884;2023-03-01T03:56:01;-3.40;99.90
28835;DHT22;15969;51.536;11.884;2023-03-01T03:58:26;-3.40;99.90
28835;DHT22;15969;51.536;11.884;2023-03-01T04:00:54;-3.40;99.90
28835;DHT22;15969;51.536;11.884;2023-03-01T04:03:23;-3.40;99.90
28835;DHT22;15969;51.536;11.884;2023-03-01T04:05:50;-3.50;99.90
28835;DHT22;15969;51.536;11.884;2023-03-01T04:08:18;-3.50;99.90
28835;DHT22;15969;51.536;11.884;2023-03-01T04:10:49;-3.50;99.90
28835;DHT22;15969;51.536;11.884;2023-03-01T04:13:19;-3.50;99.90
28835;DHT22;15969;51.536;11.884;2023-03-01T04:15:48;-3.40;99.90
28835;DHT22;15969;51.536;11.884;2023-03-01T04:18:15;-3.50;99.90
28835;DHT22;15969;51.536;11.884;2023-03-01T04:20:42;-3.50;99.90
28835;DHT22;15969;51.536;11.884;2023-03-01T04:23:11;-3.50;99.90
28835;DHT22;15969;51.536;11.884;2023-03-01T04:28:26;-3.40;99.90
28835;DHT22;15969;51.536;11.884;2023-03-01T04:30:58;-3.30;99.90
28835;DHT22;15969;51.536;11.884;2023-03-01T04:33:24;-3.40;99.90
28835;DHT22;15969;51.536;11.884;2023-03-01T04:35:50;-3.50;99.90
28835;DHT22;15969;51.536;11.884;2023-03-01T04:38:18;-3.50;99.90
28835;DHT22;15969;51.536;11.884;2023-03-01T04:40:44;-3.50;99.90
28835;DHT22;15969;51.536;11.884;2023-03-01T04:43:10;-3.50;99.90
28835;DHT22;15969;51.536;11.884;2023-03-01T04:45:38;-3.60;99.90
28835;DHT22;15969;51.536;11.884;2023-03-01T04:48:04;-3.60;99.90
28835;DHT22;15969;51.536;11.884;2023-03-01T04:50:30;-3.60;99.90
28835;DHT22;15969;51.536;11.884;2023-03-01T04:52:56;-3.50;99.90
28835;DHT22;15969;51.536;11.884;2023-03-01T04:55:27;-3.50;99.90
28835;DHT22;15969;51.536;11.884;2023-03-01T04:57:53;-3.50;99.90
28835;DHT22;15969;51.536;11.884;2023-03-01T05:00:19;-3.50;99.90
28835;DHT22;15969;51.536;11.884;2023-03-01T05:02:57;-3.50;99.90
28835;DHT22;15969;51.536;11.884;2023-03-01T05:05:34;-3.50;99.90
28835;DHT22;15969;51.536;11.884;2023-03-01T05:08:06;-3.50;99.90
28835;DHT22;15969;51.536;11.884;2023-03-01T05:10:34;-3.50;99.90
28835;DHT22;15969;51.536;11.884;2023-03-01T05:13:02;-3.40;99.90
28835;DHT22;15969;51.536;11.884;2023-03-01T05:15:30;-3.50;99.90
28835;DHT22;15969;51.536;11.884;2023-03-01T05:17:58;-3.40;99.90
28835;DHT22;15969;51.536;11.884;2023-03-01T05:20:29;-3.40;99.90
28835;DHT22;15969;51.536;11.884;2023-03-01T05:22:56;-3.50;99.90
28835;DHT22;15969;51.536;11.884;2023-03-01T05:25:24;-3.30;99.90
28835;DHT22;15969;51.536;11.884;2023-03-01T05:27:50;-3.40;99.90
28835;DHT22;15969;51.536;11.884;2023-03-01T05:30:16;-3.30;99.90
28835;DHT22;15969;51.536;11.884;2023-03-01T05:32:45;-3.30;99.90
28835;DHT22;15969;51.536;11.884;2023-03-01T05:35:13;-3.40;99.90
28835;DHT22;15969;51.536;11.884;2023-03-01T05:37:44;-3.30;99.90
28835;DHT22;15969;51.536;11.884;2023-03-01T05:40:15;-3.30;99.90
28835;DHT22;15969;51.536;11.884;2023-03-01T05:42:53;-3.30;99.90
28835;DHT22;15969;51.536;11.884;2023-03-01T05:45:19;-3.30;99.90
28835;DHT22;15969;51.536;11.884;2023-03-01T05:47:47;-3.40;99.90
28835;DHT22;15969;51.536;11.884;2023-03-01T05:50:16;-3.30;99.90
28835;DHT22;15969;51.536;11.884;2023-03-01T05:52:45;-3.30;99.90
28835;DHT22;15969;51.536;11.884;2023-03-01T05:55:12;-3.30;99.90
28835;DHT22;15969;51.536;11.884;2023-03-01T05:57:37;-3.40;99.90
28835;DHT22;15969;51.536;11.884;2023-03-01T06:00:03;-3.40;99.90
28835;DHT22;15969;51.536;11.884;2023-03-01T06:02:31;-3.40;99.90
28835;DHT22;15969;51.536;11.884;2023-03-01T06:04:57;-3.30;99.90
28835;DHT22;15969;51.536;11.884;2023-03-01T06:07:23;-3.30;99.90
28835;DHT22;15969;51.536;11.884;2023-03-01T06:09:49;-3.30;99.90
28835;DHT22;15969;51.536;11.884;2023-03-01T06:12:14;-3.40;99.90
28835;DHT22;15969;51.536;11.884;2023-03-01T06:14:40;-3.50;99.90
28835;DHT22;15969;51.536;11.884;2023-03-01T06:17:06;-3.50;99.90
28835;DHT22;15969;51.536;11.884;2023-03-01T06:19:31;-3.40;99.90
28835;DHT22;15969;51.536;11.884;2023-03-01T06:21:57;-3.40;99.90
28835;DHT22;15969;51.536;11.884;2023-03-01T06:24:23;-3.40;99.90
28835;DHT22;15969;51.536;11.884;2023-03-01T06:26:48;-3.40;99.90
28835;DHT22;15969;51.536;11.884;2023-03-01T06:29:14;-3.30;99.90
28835;DHT22;15969;51.536;11.884;2023-03-01T06:31:39;-3.30;99.90
28835;DHT22;15969;51.536;11.884;2023-03-01T06:34:05;-3.30;99.90
28835;DHT22;15969;51.536;11.884;2023-03-01T06:36:31;-3.30;99.90
28835;DHT22;15969;51.536;11.884;2023-03-01T06:38:56;-3.20;99.90
28835;DHT22;15969;51.536;11.884;2023-03-01T06:41:22;-3.20;99.90
28835;DHT22;15969;51.536;11.884;2023-03-01T06:43:48;-3.10;99.90
28835;DHT22;15969;51.536;11.884;2023-03-01T06:46:13;-3.10;99.90
28835;DHT22;15969;51.536;11.884;2023-03-01T06:48:39;-3.00;99.90
28835;DHT22;15969;51.536;11.884;2023-03-01T06:51:05;-2.90;99.90
28835;DHT22;15969;51.536;11.884;2023-03-01T06:53:30;-2.80;99.90
28835;DHT22;15969;51.536;11.884;2023-03-01T06:55:56;-2.70;99.90
28835;DHT22;15969;51.536;11.884;2023-03-01T06:58:23;-2.70;99.90
28835;DHT22;15969;51.536;11.884;2023-03-01T07:00:48;-2.60;99.90
28835;DHT22;15969;51.536;11.884;2023-03-01T07:03:14;-2.60;99.90
28835;DHT22;15969;51.536;11.884;2023-03-01T07:05:40;-2.50;99.90
28835;DHT22;15969;51.536;11.884;2023-03-01T07:08:05;-2.40;99.90
28835;DHT22;15969;51.536;11.884;2023-03-01T07:10:31;-2.20;99.90
28835;DHT22;15969;51.536;11.884;2023-03-01T07:12:57;-2.10;99.90
28835;DHT22;15969;51.536;11.884;2023-03-01T07:15:25;-1.90;99.90
28835;DHT22;15969;51.536;11.884;2023-03-01T07:17:51;-1.80;99.90
28835;DHT22;15969;51.536;11.884;2023-03-01T07:20:18;-1.70;99.90
28835;DHT22;15969;51.536;11.884;2023-03-01T07:22:44;-1.60;99.90
28835;DHT22;15969;51.536;11.884;2023-03-01T07:25:10;-1.60;99.90
28835;DHT22;15969;51.536;11.884;2023-03-01T07:27:36;-1.40;99.90
28835;DHT22;15969;51.536;11.884;2023-03-01T07:30:02;-1.30;99.90
28835;DHT22;15969;51.536;11.884;2023-03-01T07:32:28;-1.10;99.90
28835;DHT22;15969;51.536;11.884;2023-03-01T07:34:54;-1.00;99.90
28835;DHT22;15969;51.536;11.884;2023-03-01T07:37:20;-0.90;99.90
28835;DHT22;15969;51.536;11.884;2023-03-01T07:39:45;-0.90;99.90
28835;DHT22;15969;51.536;11.884;2023-03-01T07:42:11;-0.80;99.90
28835;DHT22;15969;51.536;11.884;2023-03-01T07:44:37;-0.70;99.90
28835;DHT22;15969;51.536;11.884;2023-03-01T07:47:03;-0.60;99.90
28835;DHT22;15969;51.536;11.884;2023-03-01T07:49:29;-0.50;99.90
28835;DHT22;15969;51.536;11.884;2023-03-01T07:51:55;-0.40;99.90
28835;DHT22;15969;51.536;11.884;2023-03-01T07:54:21;-0.30;99.90
28835;DHT22;15969;51.536;11.884;2023-03-01T07:56:47;-0.20;99.90
28835;DHT22;15969;51.536;11.884;2023-03-01T07:59:12;-0.10;99.90
28835;DHT22;15969;51.536;11.884;2023-03-01T08:01:38;0.00;99.90
28835;DHT22;15969;51.536;11.884;2023-03-01T08:04:04;0.10;99.90
28835;DHT22;15969;51.536;11.884;2023-03-01T08:06:34;0.20;99.90
28835;DHT22;15969;51.536;11.884;2023-03-01T08:09:00;0.30;99.90
28835;DHT22;15969;51.536;11.884;2023-03-01T08:11:26;0.30;99.90
28835;DHT22;15969;51.536;11.884;2023-03-01T08:13:53;0.40;99.90
28835;DHT22;15969;51.536;11.884;2023-03-01T08:16:19;0.50;99.90
28835;DHT22;15969;51.536;11.884;2023-03-01T08:18:45;0.60;99.90
28835;DHT22;15969;51.536;11.884;2023-03-01T08:21:13;0.60;99.90
28835;DHT22;15969;51.536;11.884;2023-03-01T08:23:40;0.70;99.90
28835;DHT22;15969;51.536;11.884;2023-03-01T08:26:12;0.80;99.90
28835;DHT22;15969;51.536;11.884;2023-03-01T08:28:40;0.90;99.90
28835;DHT22;15969;51.536;11.884;2023-03-01T08:31:24;1.00;99.90
28835;DHT22;15969;51.536;11.884;2023-03-01T08:33:54;1.10;99.90
28835;DHT22;15969;51.536;11.884;2023-03-01T08:36:32;1.20;99.90
28835;DHT22;15969;51.536;11.884;2023-03-01T08:39:00;1.30;99.90
28835;DHT22;15969;51.536;11.884;2023-03-01T08:41:26;1.40;99.90
28835;DHT22;15969;51.536;11.884;2023-03-01T08:43:53;1.50;99.90
28835;DHT22;15969;51.536;11.884;2023-03-01T08:46:30;1.60;99.90
28835;DHT22;15969;51.536;11.884;2023-03-01T08:48:57;1.60;99.90
28835;DHT22;15969;51.536;11.884;2023-03-01T08:51:24;1.70;99.90
28835;DHT22;15969;51.536;11.884;2023-03-01T08:53:50;1.80;99.90
28835;DHT22;15969;51.536;11.884;2023-03-01T08:56:16;1.90;99.90
28835;DHT22;15969;51.536;11.884;2023-03-01T08:58:44;2.00;99.90
28835;DHT22;15969;51.536;11.884;2023-03-01T09:01:13;2.10;99.90
28835;DHT22;15969;51.536;11.884;2023-03-01T09:03:40;2.20;99.90
28835;DHT22;15969;51.536;11.884;2023-03-01T09:06:07;2.30;99.90
28835;DHT22;15969;51.536;11.884;2023-03-01T09:08:37;2.40;99.90
28835;DHT22;15969;51.536;11.884;2023-03-01T09:11:05;2.50;99.90
28835;DHT22;15969;51.536;11.884;2023-03-01T09:13:32;2.50;99.90
28835;DHT22;15969;51.536;11.884;2023-03-01T09:16:00;2.60;99.90
28835;DHT22;15969;51.536;11.884;2023-03-01T09:18:27;2.70;99.90
28835;DHT22;15969;51.536;11.884;2023-03-01T09:20:52;2.80;99.90
28835;DHT22;15969;51.536;11.884;2023-03-01T09:23:20;2.80;99.90
28835;DHT22;15969;51.536;11.884;2023-03-01T09:25:46;2.90;99.90
28835;DHT22;15969;51.536;11.884;2023-03-01T09:28:12;3.00;99.90
28835;DHT22;15969;51.536;11.884;2023-03-01T09:30:38;3.10;99.90
28835;DHT22;15969;51.536;11.884;2023-03-01T09:33:03;3.20;99.90
28835;DHT22;15969;51.536;11.884;2023-03-01T09:35:29;3.20;99.90
28835;DHT22;15969;51.536;11.884;2023-03-01T09:37:55;3.30;99.90
28835;DHT22;15969;51.536;11.884;2023-03-01T09:40:23;3.40;99.90
28835;DHT22;15969;51.536;11.884;2023-03-01T09:43:08;3.40;99.90
28835;DHT22;15969;51.536;11.884;2023-03-01T09:45:44;3.50;99.90
28835;DHT22;15969;51.536;11.884;2023-03-01T09:48:16;3.50;99.90
28835;DHT22;15969;51.536;11.884;2023-03-01T09:50:44;3.70;99.90
28835;DHT22;15969;51.536;11.884;2023-03-01T09:53:17;3.70;99.90
28835;DHT22;15969;51.536;11.884;2023-03-01T09:55:51;3.70;99.90
28835;DHT22;15969;51.536;11.884;2023-03-01T09:58:51;3.80;99.90
28835;DHT22;15969;51.536;11.884;2023-03-01T10:02:01;3.90;99.90
28835;DHT22;15969;51.536;11.884;2023-03-01T10:04:53;4.00;99.90
28835;DHT22;15969;51.536;11.884;2023-03-01T10:10:00;4.00;99.90
28835;DHT22;15969;51.536;11.884;2023-03-01T10:12:35;4.10;99.90
28835;DHT22;15969;51.536;11.884;2023-03-01T10:15:22;4.20;99.90
28835;DHT22;15969;51.536;11.884;2023-03-01T10:18:09;4.20;99.90
28835;DHT22;15969;51.536;11.884;2023-03-01T10:20:52;4.30;99.90
28835;DHT22;15969;51.536;11.884;2023-03-01T10:23:37;4.30;99.90
28835;DHT22;15969;51.536;11.884;2023-03-01T10:29:11;4.60;99.90
28835;DHT22;15969;51.536;11.884;2023-03-01T10:31:49;4.60;99.90
28835;DHT22;15969;51.536;11.884;2023-03-01T10:34:22;4.60;99.90
28835;DHT22;15969;51.536;11.884;2023-03-01T10:37:22;4.70;99.90
28835;DHT22;15969;51.536;11.884;2023-03-01T10:39:58;4.80;99.90
28835;DHT22;15969;51.536;11.884;2023-03-01T10:42:32;4.80;99.90
28835;DHT22;15969;51.536;11.884;2023-03-01T10:45:30;4.90;99.90
28835;DHT22;15969;51.536;11.884;2023-03-01T10:48:15;4.90;99.90
28835;DHT22;15969;51.536;11.884;2023-03-01T10:50:46;5.00;99.90
28835;DHT22;15969;51.536;11.884;2023-03-01T10:53:43;5.10;99.90
28835;DHT22;15969;51.536;11.884;2023-03-01T10:56:14;5.20;99.90
28835;DHT22;15969;51.536;11.884;2023-03-01T10:58:59;5.20;99.90
28835;DHT22;15969;51.536;11.884;2023-03-01T11:01:32;5.30;99.90
28835;DHT22;15969;51.536;11.884;2023-03-01T11:06:32;5.40;99.80
28835;DHT22;15969;51.536;11.884;2023-03-01T11:09:20;5.40;98.90
28835;DHT22;15969;51.536;11.884;2023-03-01T11:11:55;5.50;98.50
28835;DHT22;15969;51.536;11.884;2023-03-01T11:14:24;5.60;98.40
28835;DHT22;15969;51.536;11.884;2023-03-01T11:17:11;5.60;98.10
28835;DHT22;15969;51.536;11.884;2023-03-01T11:19:41;5.70;98.40
28835;DHT22;15969;51.536;11.884;2023-03-01T11:22:18;5.70;97.60
28835;DHT22;15969;51.536;11.884;2023-03-01T11:24:53;5.80;97.20
28835;DHT22;15969;51.536;11.884;2023-03-01T11:27:24;5.90;97.00
28835;DHT22;15969;51.536;11.884;2023-03-01T11:35:36;6.10;96.20
28835;DHT22;15969;51.536;11.884;2023-03-01T11:38:17;6.10;96.00
28835;DHT22;15969;51.536;11.884;2023-03-01T11:40:58;6.20;97.00
28835;DHT22;15969;51.536;11.884;2023-03-01T11:43:52;6.30;96.50
28835;DHT22;15969;51.536;11.884;2023-03-01T11:52:20;6.60;95.80
28835;DHT22;15969;51.536;11.884;2023-03-01T11:55:14;6.60;93.30
28835;DHT22;15969;51.536;11.884;2023-03-01T11:58:02;6.70;93.10
28835;DHT22;15969;51.536;11.884;2023-03-01T12:01:08;6.80;93.00
28835;DHT22;15969;51.536;11.884;2023-03-01T12:07:05;6.90;92.10
28835;DHT22;15969;51.536;11.884;2023-03-01T12:09:38;6.90;90.70
28835;DHT22;15969;51.536;11.884;2023-03-01T12:12:34;7.00;90.80
28835;DHT22;15969;51.536;11.884;2023-03-01T12:27:04;7.50;90.30
28835;DHT22;15969;51.536;11.884;2023-03-01T12:29:43;7.50;88.90
28835;DHT22;15969;51.536;11.884;2023-03-01T12:50:47;8.10;82.50
28835;DHT22;15969;51.536;11.884;2023-03-01T12:53:26;8.10;81.00
28835;DHT22;15969;51.536;11.884;2023-03-01T12:55:58;8.20;82.10
28835;DHT22;15969;51.536;11.884;2023-03-01T13:07:50;8.50;78.10
28835;DHT22;15969;51.536;11.884;2023-03-01T13:10:39;8.50;76.20
28835;DHT22;15969;51.536;11.884;2023-03-01T13:13:11;8.60;75.10
28835;DHT22;15969;51.536;11.884;2023-03-01T13:15:40;8.70;76.70
28835;DHT22;15969;51.536;11.884;2023-03-01T13:23:24;9.00;74.60
28835;DHT22;15969;51.536;11.884;2023-03-01T13:33:50;9.50;72.70
28835;DHT22;15969;51.536;11.884;2023-03-01T13:44:30;9.80;70.80
28835;DHT22;15969;51.536;11.884;2023-03-01T13:49:56;10.10;67.10
28835;DHT22;15969;51.536;11.884;2023-03-01T13:57:41;10.40;68.30
28835;DHT22;15969;51.536;11.884;2023-03-01T14:00:31;10.50;70.80
28835;DHT22;15969;51.536;11.884;2023-03-01T14:03:19;10.50;66.20
28835;DHT22;15969;51.536;11.884;2023-03-01T14:06:07;10.60;67.20
28835;DHT22;15969;51.536;11.884;2023-03-01T14:08:48;10.70;66.50
28835;DHT22;15969;51.536;11.884;2023-03-01T14:11:43;10.90;68.00
28835;DHT22;15969;51.536;11.884;2023-03-01T14:17:59;11.10;65.00
28835;DHT22;15969;51.536;11.884;2023-03-01T14:20:41;11.20;62.70
28835;DHT22;15969;51.536;11.884;2023-03-01T14:23:17;11.50;64.20
28835;DHT22;15969;51.536;11.884;2023-03-01T14:25:52;11.90;63.60
28835;DHT22;15969;51.536;11.884;2023-03-01T14:28:26;12.50;60.60
28835;DHT22;15969;51.536;11.884;2023-03-01T14:30:56;15.00;57.70
28835;DHT22;15969;51.536;11.884;2023-03-01T14:33:28;18.30;56.20
28835;DHT22;15969;51.536;11.884;2023-03-01T14:36:11;21.60;50.10
28835;DHT22;15969;51.536;11.884;2023-03-01T14:38:40;24.60;44.80
28835;DHT22;15969;51.536;11.884;2023-03-01T14:41:11;26.00;39.30
28835;DHT22;15969;51.536;11.884;2023-03-01T14:43:53;26.40;36.10
28835;DHT22;15969;51.536;11.884;2023-03-01T14:46:30;28.50;34.90
28835;DHT22;15969;51.536;11.884;2023-03-01T14:49:11;30.10;33.00
28835;DHT22;15969;51.536;11.884;2023-03-01T14:54:27;31.30;43.80
28835;DHT22;15969;51.536;11.884;2023-03-01T14:59:42;32.00;29.10
28835;DHT22;15969;51.536;11.884;2023-03-01T15:02:16;30.80;29.10
28835;DHT22;15969;51.536;11.884;2023-03-01T15:04:54;31.40;28.70
28835;DHT22;15969;51.536;11.884;2023-03-01T15:07:23;31.70;28.70
28835;DHT22;15969;51.536;11.884;2023-03-01T15:09:53;31.80;27.20
28835;DHT22;15969;51.536;11.884;2023-03-01T15:12:45;31.70;28.40
28835;DHT22;15969;51.536;11.884;2023-03-01T15:18:01;31.40;27.90
28835;DHT22;15969;51.536;11.884;2023-03-01T15:20:29;29.70;27.90
28835;DHT22;15969;51.536;11.884;2023-03-01T15:23:00;29.60;29.10
28835;DHT22;15969;51.536;11.884;2023-03-01T15:25:28;29.70;29.00
28835;DHT22;15969;51.536;11.884;2023-03-01T15:27:57;28.70;29.60
28835;DHT22;15969;51.536;11.884;2023-03-01T15:30:29;28.50;29.20
28835;DHT22;15969;51.536;11.884;2023-03-01T15:33:28;27.50;29.50
28835;DHT22;15969;51.536;11.884;2023-03-01T15:35:58;26.90;30.50
28835;DHT22;15969;51.536;11.884;2023-03-01T15:40:58;22.70;33.60
28835;DHT22;15969;51.536;11.884;2023-03-01T15:43:45;20.90;35.50
28835;DHT22;15969;51.536;11.884;2023-03-01T15:46:17;19.90;36.80
28835;DHT22;15969;51.536;11.884;2023-03-01T15:48:47;19.10;38.00
28835;DHT22;15969;51.536;11.884;2023-03-01T15:51:15;18.70;37.30
28835;DHT22;15969;51.536;11.884;2023-03-01T15:53:45;18.40;38.40
28835;DHT22;15969;51.536;11.884;2023-03-01T15:56:13;17.90;39.30
28835;DHT22;15969;51.536;11.884;2023-03-01T15:58:39;16.70;40.90
28835;DHT22;15969;51.536;11.884;2023-03-01T16:01:12;15.80;42.60
28835;DHT22;15969;51.536;11.884;2023-03-01T16:03:39;14.80;44.10
28835;DHT22;15969;51.536;11.884;2023-03-01T16:06:04;14.40;44.70
28835;DHT22;15969;51.536;11.884;2023-03-01T16:08:30;14.10;44.80
28835;DHT22;15969;51.536;11.884;2023-03-01T16:10:56;13.50;45.80
28835;DHT22;15969;51.536;11.884;2023-03-01T16:13:21;13.10;47.00
28835;DHT22;15969;51.536;11.884;2023-03-01T16:15:47;12.70;47.40
28835;DHT22;15969;51.536;11.884;2023-03-01T16:18:13;12.30;48.00
28835;DHT22;15969;51.536;11.884;2023-03-01T16:20:39;12.00;48.10
28835;DHT22;15969;51.536;11.884;2023-03-01T16:23:06;11.80;48.60
28835;DHT22;15969;51.536;11.884;2023-03-01T16:25:34;11.40;49.50
28835;DHT22;15969;51.536;11.884;2023-03-01T16:28:01;11.00;51.40
28835;DHT22;15969;51.536;11.884;2023-03-01T16:30:30;10.50;52.80
28835;DHT22;15969;51.536;11.884;2023-03-01T16:32:55;10.20;53.70
28835;DHT22;15969;51.536;11.884;2023-03-01T16:35:22;9.80;55.80
28835;DHT22;15969;51.536;11.884;2023-03-01T16:37:48;9.60;56.30
28835;DHT22;15969;51.536;11.884;2023-03-01T16:40:23;9.40;56.60
28835;DHT22;15969;51.536;11.884;2023-03-01T16:42:51;9.10;57.20
28835;DHT22;15969;51.536;11.884;2023-03-01T16:45:17;9.00;58.10
28835;DHT22;15969;51.536;11.884;2023-03-01T16:47:43;8.70;58.80
28835;DHT22;15969;51.536;11.884;2023-03-01T16:50:09;8.60;59.40
28835;DHT22;15969;51.536;11.884;2023-03-01T16:52:35;8.30;60.10
28835;DHT22;15969;51.536;11.884;2023-03-01T16:55:06;8.10;61.70
28835;DHT22;15969;51.536;11.884;2023-03-01T16:57:35;7.80;61.90
28835;DHT22;15969;51.536;11.884;2023-03-01T17:00:05;7.50;62.50
28835;DHT22;15969;51.536;11.884;2023-03-01T17:02:37;7.20;63.70
28835;DHT22;15969;51.536;11.884;2023-03-01T17:05:03;7.10;64.60
28835;DHT22;15969;51.536;11.884;2023-03-01T17:07:30;6.90;65.10
28835;DHT22;15969;51.536;11.884;2023-03-01T17:10:00;6.60;66.20
28835;DHT22;15969;51.536;11.884;2023-03-01T17:12:27;6.50;67.10
28835;DHT22;15969;51.536;11.884;2023-03-01T17:14:53;6.20;67.70
28835;DHT22;15969;51.536;11.884;2023-03-01T17:17:19;6.20;69.00
28835;DHT22;15969;51.536;11.884;2023-03-01T17:19:45;5.90;69.70
28835;DHT22;15969;51.536;11.884;2023-03-01T17:22:11;5.70;70.70
28835;DHT22;15969;51.536;11.884;2023-03-01T17:24:39;5.40;71.20
28835;DHT22;15969;51.536;11.884;2023-03-01T17:27:06;5.30;72.20
28835;DHT22;15969;51.536;11.884;2023-03-01T17:29:31;5.10;73.10
28835;DHT22;15969;51.536;11.884;2023-03-01T17:31:57;5.00;74.00
28835;DHT22;15969;51.536;11.884;2023-03-01T17:34:23;4.90;74.70
28835;DHT22;15969;51.536;11.884;2023-03-01T17:36:49;4.70;75.60
28835;DHT22;15969;51.536;11.884;2023-03-01T17:39:17;4.80;76.20